Time;durP1;ratioP1;P1;durP2;ratioP2;P2;SDS_P1;SDS_P2;PMS_P1;PMS_P2;Temp;Humidity;BMP_temperature;BMP_pressure;BME280_temperature;BME280_humidity;BME280_pressure;Samples;Min_cycle;Max_cycle;Signal;HPM_P1;HPM_P2
2021/03/20 00:00:44;;;;;;;2.50;1.00;;;22.40;31.20;;;;;;5030887;28;20399;-61
2021/03/20 00:03:10;;;;;;;1.38;0.93;;;22.30;31.20;;;;;;5027850;28;20448;-62
2021/03/20 00:05:37;;;;;;;1.40;0.80;;;22.30;31.10;;;;;;5030862;28;20398;-63
2021/03/20 00:08:05;;;;;;;1.70;0.98;;;22.30;30.90;;;;;;5029988;28;20388;-62
2021/03/20 00:10:31;;;;;;;1.92;1.10;;;22.20;31.00;;;;;;5024087;28;20484;-62
2021/03/20 00:12:57;;;;;;;1.30;0.82;;;22.20;30.90;;;;;;5015129;28;20388;-62
2021/03/20 00:15:25;;;;;;;1.58;0.90;;;22.30;31.20;;;;;;5015714;28;20383;-62
2021/03/20 00:17:51;;;;;;;1.60;0.90;;;22.20;31.10;;;;;;5029850;28;20450;-62
2021/03/20 00:20:29;;;;;;;1.48;1.00;;;22.20;31.10;;;;;;5035137;28;20472;-63
2021/03/20 00:22:55;;;;;;;1.23;0.90;;;22.20;31.10;;;;;;5032988;28;20921;-62
2021/03/20 00:25:21;;;;;;;1.55;0.90;;;22.20;31.10;;;;;;5034778;28;20406;-62
2021/03/20 00:27:48;;;;;;;1.30;0.68;;;22.20;31.10;;;;;;5035135;28;20379;-62
2021/03/20 00:30:15;;;;;;;1.50;0.80;;;22.20;31.10;;;;;;5022933;28;20470;-62
2021/03/20 00:32:41;;;;;;;1.40;0.90;;;22.10;31.00;;;;;;5014479;28;20401;-62
2021/03/20 00:35:08;;;;;;;1.02;0.70;;;22.10;31.00;;;;;;5015126;28;20405;-63
2021/03/20 00:37:34;;;;;;;1.23;0.85;;;22.10;31.00;;;;;;5016157;28;20392;-62
2021/03/20 00:40:01;;;;;;;1.42;0.85;;;22.10;31.00;;;;;;5014641;28;20465;-62
2021/03/20 00:42:27;;;;;;;1.10;0.87;;;22.10;31.00;;;;;;5027544;28;20477;-62
2021/03/20 00:44:53;;;;;;;1.47;0.90;;;22.10;31.10;;;;;;5034233;28;20729;-62
2021/03/20 00:47:19;;;;;;;1.53;0.90;;;22.10;31.00;;;;;;5034477;28;20383;-62
2021/03/20 00:49:45;;;;;;;1.50;1.00;;;22.10;31.00;;;;;;5034664;28;20445;-62
2021/03/20 00:52:10;;;;;;;1.13;0.70;;;22.10;31.00;;;;;;5034700;28;20394;-63
2021/03/20 00:54:37;;;;;;;1.83;0.80;;;22.10;31.00;;;;;;5037567;28;20825;-63
2021/03/20 00:57:03;;;;;;;1.20;0.90;;;22.10;30.70;;;;;;5022872;28;20431;-61
2021/03/20 00:59:29;;;;;;;1.30;0.70;;;22.10;31.00;;;;;;5023134;28;20760;-62
2021/03/20 01:01:55;;;;;;;1.77;0.80;;;22.10;30.80;;;;;;5023008;28;20402;-62
2021/03/20 01:04:21;;;;;;;2.00;0.85;;;22.20;30.90;;;;;;5022844;28;20397;-61
2021/03/20 01:06:47;;;;;;;1.40;0.80;;;22.20;31.00;;;;;;5026807;28;20407;-61
2021/03/20 01:09:13;;;;;;;2.22;0.73;;;22.20;30.90;;;;;;5022457;28;20397;-62
2021/03/20 01:11:39;;;;;;;2.33;0.90;;;22.20;30.80;;;;;;5030988;28;20490;-62
2021/03/20 01:14:05;;;;;;;1.90;0.80;;;22.10;31.20;;;;;;5032851;28;20445;-61
2021/03/20 01:16:30;;;;;;;1.65;0.90;;;22.10;31.20;;;;;;5034151;28;20395;-62
2021/03/20 01:18:56;;;;;;;3.07;1.20;;;22.10;31.30;;;;;;5033453;28;20407;-61
2021/03/20 01:21:24;;;;;;;1.90;0.90;;;22.10;31.10;;;;;;5033675;28;20387;-62
2021/03/20 01:23:50;;;;;;;1.23;0.70;;;22.10;31.30;;;;;;5033349;28;20391;-62
2021/03/20 01:26:16;;;;;;;2.70;0.80;;;22.10;31.20;;;;;;5031995;28;20858;-62
2021/03/20 01:28:42;;;;;;;2.40;0.82;;;22.10;31.50;;;;;;5033042;28;20449;-61
2021/03/20 01:31:10;;;;;;;1.38;0.90;;;22.10;31.30;;;;;;5033916;28;20415;-62
2021/03/20 01:33:36;;;;;;;2.38;0.90;;;22.10;31.30;;;;;;5030811;28;20409;-61
2021/03/20 01:36:02;;;;;;;2.05;1.00;;;22.10;31.20;;;;;;5033799;28;20387;-63
2021/03/20 01:38:28;;;;;;;1.52;0.80;;;22.10;31.10;;;;;;5017818;28;20865;-62
2021/03/20 01:41:04;;;;;;;1.25;0.80;;;22.10;31.10;;;;;;5013558;28;20917;-62
2021/03/20 01:43:31;;;;;;;1.98;0.88;;;22.00;31.00;;;;;;5013934;28;20389;-62
2021/03/20 01:46:31;;;;;;;1.55;0.88;;;22.00;31.00;;;;;;5026380;28;20850;-62
2021/03/20 01:48:57;;;;;;;1.10;0.73;;;22.00;30.90;;;;;;5013425;28;20405;-62
2021/03/20 01:51:23;;;;;;;1.83;0.80;;;22.00;30.80;;;;;;5030139;28;20423;-62
2021/03/20 01:53:55;;;;;;;1.10;0.80;;;22.00;31.40;;;;;;5033495;28;20473;-62
2021/03/20 01:56:37;;;;;;;1.80;0.90;;;22.00;30.70;;;;;;5033548;28;20391;-62
2021/03/20 01:59:03;;;;;;;1.13;0.80;;;22.00;30.70;;;;;;5031421;28;20478;-62
2021/03/20 02:01:31;;;;;;;1.70;0.77;;;22.00;30.60;;;;;;5022419;28;20403;-62
2021/03/20 02:03:59;;;;;;;2.60;0.80;;;21.90;30.50;;;;;;5013509;28;20467;-62
2021/03/20 02:06:26;;;;;;;1.67;0.80;;;22.00;30.50;;;;;;5013532;28;20392;-63
2021/03/20 02:08:57;;;;;;;1.20;0.80;;;21.90;30.50;;;;;;5013054;28;20389;-62
2021/03/20 02:11:55;;;;;;;1.58;1.05;;;21.90;30.40;;;;;;5013254;28;20385;-63
2021/03/20 02:14:33;;;;;;;1.20;0.80;;;21.90;30.30;;;;;;5028203;28;20428;-62
2021/03/20 02:17:27;;;;;;;1.80;0.80;;;21.90;30.30;;;;;;5019480;28;20426;-62
2021/03/20 02:20:31;;;;;;;1.40;0.80;;;21.90;30.30;;;;;;5013260;28;20416;-63
2021/03/20 02:23:09;;;;;;;1.40;0.80;;;21.90;30.30;;;;;;5012586;28;20420;-62
2021/03/20 02:26:21;;;;;;;1.65;0.82;;;21.80;30.80;;;;;;5028171;28;20395;-62
2021/03/20 02:28:53;;;;;;;1.10;0.80;;;21.80;30.20;;;;;;5030785;28;20487;-62
2021/03/20 02:31:35;;;;;;;1.35;0.90;;;21.80;30.20;;;;;;5032195;28;20959;-61
2021/03/20 02:34:04;;;;;;;1.40;0.90;;;21.80;30.20;;;;;;5032788;28;20399;-62
2021/03/20 02:36:57;;;;;;;1.20;0.80;;;21.80;30.20;;;;;;5031526;28;20414;-62
2021/03/20 02:39:48;;;;;;;1.00;0.70;;;21.80;30.10;;;;;;5031603;28;20899;-62
2021/03/20 02:42:29;;;;;;;1.50;0.80;;;21.80;30.10;;;;;;5022232;28;20407;-61
2021/03/20 02:45:02;;;;;;;1.17;0.82;;;21.80;30.10;;;;;;5032239;28;20380;-62
2021/03/20 02:47:38;;;;;;;1.38;0.93;;;21.80;30.10;;;;;;5027151;28;20403;-62
2021/03/20 02:50:15;;;;;;;1.70;1.00;;;21.70;30.00;;;;;;5031266;28;20391;-62
2021/03/20 02:52:50;;;;;;;1.17;0.88;;;21.70;30.00;;;;;;5032113;28;20387;-61
2021/03/20 02:55:48;;;;;;;1.50;0.90;;;21.70;30.00;;;;;;5030634;28;20410;-62
2021/03/20 02:58:39;;;;;;;1.50;1.10;;;21.70;30.00;;;;;;5028058;28;20438;-61
2021/03/20 03:01:11;;;;;;;1.10;0.80;;;21.70;30.00;;;;;;5031467;28;20418;-62
2021/03/20 03:03:41;;;;;;;1.33;0.90;;;21.70;30.00;;;;;;5032146;28;20430;-62
2021/03/20 03:06:40;;;;;;;1.20;0.90;;;21.70;30.00;;;;;;5032282;28;20417;-62
2021/03/20 03:09:16;;;;;;;1.27;0.93;;;21.70;30.00;;;;;;5013702;28;20781;-62
2021/03/20 03:11:57;;;;;;;1.60;0.98;;;21.70;30.00;;;;;;5012295;28;20388;-62
2021/03/20 03:14:45;;;;;;;1.30;0.90;;;21.60;30.00;;;;;;5024740;28;20948;-62
2021/03/20 03:17:14;;;;;;;1.40;0.90;;;21.60;30.00;;;;;;5020276;28;20985;-62
2021/03/20 03:19:46;;;;;;;1.40;0.90;;;21.60;30.00;;;;;;5016484;28;20779;-62
2021/03/20 03:22:24;;;;;;;1.45;1.00;;;21.60;30.00;;;;;;5030882;28;20486;-62
2021/03/20 03:24:57;;;;;;;1.75;1.10;;;21.60;29.90;;;;;;5031452;28;20403;-62
2021/03/20 03:27:28;;;;;;;1.42;1.00;;;21.60;29.90;;;;;;5031654;28;20426;-62
2021/03/20 03:29:54;;;;;;;1.23;1.00;;;21.60;29.90;;;;;;5031545;28;20418;-62
2021/03/20 03:32:44;;;;;;;1.40;1.00;;;21.50;29.90;;;;;;5029990;28;20733;-62
2021/03/20 03:35:39;;;;;;;1.27;0.90;;;21.50;29.90;;;;;;5046416;28;20403;-62
2021/03/20 03:38:26;;;;;;;1.30;1.00;;;21.60;29.90;;;;;;5031330;28;20995;-62
2021/03/20 03:41:14;;;;;;;1.30;1.08;;;21.60;29.90;;;;;;5029912;28;20895;-63
2021/03/20 03:43:40;;;;;;;1.33;1.00;;;21.50;29.90;;;;;;5031318;28;20864;-63
2021/03/20 03:46:07;;;;;;;1.40;1.00;;;21.50;29.90;;;;;;5028315;28;20407;-62
2021/03/20 03:48:35;;;;;;;1.20;0.90;;;21.50;29.80;;;;;;5031678;28;20387;-62
2021/03/20 03:51:14;;;;;;;1.20;0.90;;;21.50;30.30;;;;;;5029300;28;20403;-62
2021/03/20 03:53:41;;;;;;;1.37;1.00;;;21.50;29.80;;;;;;5031393;28;20402;-62
2021/03/20 03:56:43;;;;;;;1.48;1.10;;;21.50;29.80;;;;;;5031317;28;20414;-63
2021/03/20 03:59:21;;;;;;;1.50;1.10;;;21.50;29.80;;;;;;5030836;28;20902;-62
2021/03/20 04:01:54;;;;;;;1.60;1.05;;;21.50;29.80;;;;;;5031476;28;20387;-63
2021/03/20 04:04:31;;;;;;;1.60;1.15;;;21.50;29.80;;;;;;5031461;28;20478;-62
2021/03/20 04:07:37;;;;;;;1.30;1.00;;;21.40;29.70;;;;;;5031005;28;20444;-62
2021/03/20 04:10:15;;;;;;;1.40;1.00;;;21.50;29.80;;;;;;5029834;28;20395;-62
2021/03/20 04:13:16;;;;;;;1.73;0.93;;;21.50;29.80;;;;;;5030033;28;20403;-62
2021/03/20 04:16:19;;;;;;;2.67;1.05;;;21.40;30.00;;;;;;5004843;28;20416;-62
2021/03/20 04:19:03;;;;;;;2.70;1.20;;;21.40;30.30;;;;;;5009341;28;20415;-61
2021/03/20 04:21:51;;;;;;;3.13;1.00;;;21.40;30.50;;;;;;5029790;28;20491;-61
2021/03/20 04:24:23;;;;;;;1.90;1.00;;;21.40;30.30;;;;;;5031079;28;20395;-62
2021/03/20 04:27:04;;;;;;;2.35;1.00;;;21.40;30.00;;;;;;5016659;28;20401;-60
2021/03/20 04:29:52;;;;;;;1.95;1.08;;;21.40;30.00;;;;;;5030646;28;20923;-60
2021/03/20 04:32:25;;;;;;;3.95;1.17;;;21.40;30.00;;;;;;5030737;28;20407;-63
2021/03/20 04:35:29;;;;;;;3.03;1.17;;;21.40;30.00;;;;;;5022379;28;20417;-61
2021/03/20 04:37:58;;;;;;;3.53;1.20;;;21.40;30.10;;;;;;5000400;28;20907;-63
2021/03/20 04:40:47;;;;;;;2.70;1.02;;;21.40;30.00;;;;;;5011171;28;20471;-63
2021/03/20 04:43:18;;;;;;;2.53;1.10;;;21.40;30.00;;;;;;5010834;28;20392;-62
2021/03/20 04:46:15;;;;;;;2.27;0.93;;;21.40;29.90;;;;;;5012001;28;20922;-62
2021/03/20 04:48:45;;;;;;;1.50;1.10;;;21.40;29.80;;;;;;5010072;28;20821;-63
2021/03/20 04:51:30;;;;;;;2.27;0.90;;;21.40;29.80;;;;;;5010780;28;20396;-63
2021/03/20 04:54:06;;;;;;;1.98;1.10;;;21.40;29.80;;;;;;5012715;28;20400;-63
2021/03/20 04:56:41;;;;;;;1.50;0.93;;;21.40;29.80;;;;;;5032474;28;20453;-63
2021/03/20 04:59:16;;;;;;;1.90;1.10;;;21.40;29.80;;;;;;5049574;28;20423;-63
2021/03/20 05:01:47;;;;;;;2.47;1.05;;;21.40;29.70;;;;;;5034373;28;20387;-62
2021/03/20 05:04:30;;;;;;;1.80;1.20;;;21.40;29.70;;;;;;5034393;28;20395;-62
2021/03/20 05:07:01;;;;;;;1.77;1.10;;;21.40;29.70;;;;;;5033996;28;20441;-63
2021/03/20 05:09:29;;;;;;;1.73;1.15;;;21.40;29.70;;;;;;5034464;28;20383;-63
2021/03/20 05:11:59;;;;;;;1.83;1.00;;;21.30;29.70;;;;;;5034311;28;20449;-62
2021/03/20 05:14:40;;;;;;;1.30;1.00;;;21.30;29.70;;;;;;5034285;28;20395;-63
2021/03/20 05:17:25;;;;;;;1.92;1.02;;;21.30;29.70;;;;;;5020087;28;20771;-62
2021/03/20 05:19:51;;;;;;;1.50;1.08;;;21.30;29.70;;;;;;5012980;28;20417;-62
2021/03/20 05:22:26;;;;;;;1.70;1.10;;;21.30;29.60;;;;;;5014062;28;20396;-62
2021/03/20 05:24:54;;;;;;;2.60;1.10;;;21.30;29.60;;;;;;5012724;28;20407;-63
2021/03/20 05:27:24;;;;;;;1.70;1.10;;;21.30;29.60;;;;;;5014217;28;20784;-63
2021/03/20 05:29:50;;;;;;;1.98;1.20;;;21.30;29.60;;;;;;5012928;28;20405;-63
2021/03/20 05:32:22;;;;;;;1.85;1.15;;;21.30;29.60;;;;;;5031677;28;20891;-63
2021/03/20 05:34:49;;;;;;;1.67;1.20;;;21.20;29.50;;;;;;5033684;28;20402;-62
2021/03/20 05:37:24;;;;;;;1.88;1.10;;;21.20;29.50;;;;;;5033508;28;20391;-63
2021/03/20 05:39:50;;;;;;;1.50;1.17;;;21.20;29.50;;;;;;5033637;28;20411;-62
2021/03/20 05:42:35;;;;;;;1.70;1.20;;;21.30;29.50;;;;;;5033379;28;20387;-62
2021/03/20 05:45:17;;;;;;;1.88;1.05;;;21.20;29.50;;;;;;5032876;28;20763;-62
2021/03/20 05:47:59;;;;;;;1.50;1.00;;;21.20;29.50;;;;;;5031268;28;20403;-62
2021/03/20 05:50:33;;;;;;;1.55;1.08;;;21.20;29.40;;;;;;5032293;28;20399;-62
2021/03/20 05:53:33;;;;;;;1.55;1.30;;;21.20;29.40;;;;;;5033073;28;20437;-62
2021/03/20 05:56:07;;;;;;;2.00;1.10;;;21.20;29.40;;;;;;5031706;28;20895;-62
2021/03/20 05:59:00;;;;;;;2.80;1.30;;;21.10;29.50;;;;;;5033230;28;20747;-62
2021/03/20 06:02:13;;;;;;;1.75;1.23;;;21.10;29.10;;;;;;5031401;28;20399;-63
2021/03/20 06:04:44;;;;;;;2.10;1.20;;;20.90;29.00;;;;;;5048191;28;20394;-60
2021/03/20 06:07:36;;;;;;;1.95;1.25;;;20.90;29.30;;;;;;5046980;28;20407;-62
2021/03/20 06:10:12;;;;;;;2.70;1.20;;;20.80;29.50;;;;;;5032906;28;20595;-62
2021/03/20 06:12:44;;;;;;;2.80;1.20;;;20.80;29.60;;;;;;5031192;28;20482;-62
2021/03/20 06:15:25;;;;;;;2.10;1.23;;;20.80;29.80;;;;;;5032679;28;20469;-61
2021/03/20 06:17:54;;;;;;;1.60;1.20;;;20.70;29.80;;;;;;5033098;28;20384;-62
2021/03/20 06:20:25;;;;;;;1.50;1.10;;;20.70;29.80;;;;;;5031214;28;21153;-61
2021/03/20 06:23:21;;;;;;;1.50;1.20;;;20.60;29.70;;;;;;5032602;28;20390;-60
2021/03/20 06:25:56;;;;;;;1.58;1.10;;;20.60;29.90;;;;;;5032701;28;20478;-63
2021/03/20 06:28:30;;;;;;;1.63;1.20;;;20.60;29.90;;;;;;5031702;28;20879;-62
2021/03/20 06:31:04;;;;;;;2.08;1.30;;;20.60;29.90;;;;;;5030713;28;20403;-63
2021/03/20 06:33:45;;;;;;;1.50;1.20;;;20.60;29.90;;;;;;5031687;28;20898;-61
2021/03/20 06:36:23;;;;;;;1.90;1.20;;;20.50;29.90;;;;;;5032641;28;20783;-63
2021/03/20 06:39:04;;;;;;;1.52;1.00;;;20.50;30.00;;;;;;5032629;28;20541;-63
2021/03/20 06:41:39;;;;;;;1.30;0.90;;;20.50;30.10;;;;;;5027448;28;20809;-62
2021/03/20 06:44:38;;;;;;;1.30;1.10;;;20.50;30.30;;;;;;5011441;28;20389;-63
2021/03/20 06:47:14;;;;;;;1.73;1.00;;;20.50;30.20;;;;;;5007688;28;20396;-62
2021/03/20 06:49:44;;;;;;;3.50;1.30;;;20.50;30.50;;;;;;5011288;28;20396;-63
2021/03/20 06:52:18;;;;;;;3.53;1.30;;;20.40;30.50;;;;;;5012825;28;20397;-63
2021/03/20 06:54:47;;;;;;;2.03;1.50;;;20.40;30.60;;;;;;5012526;28;20486;-62
2021/03/20 06:57:13;;;;;;;2.33;1.30;;;20.40;30.60;;;;;;5012260;28;20399;-62
2021/03/20 06:59:39;;;;;;;3.53;1.30;;;20.40;30.70;;;;;;5011035;28;20401;-62
2021/03/20 07:02:34;;;;;;;2.27;1.20;;;20.40;30.80;;;;;;5012456;28;20479;-63
2021/03/20 07:05:25;;;;;;;2.80;1.50;;;20.40;30.70;;;;;;5011950;28;20381;-63
2021/03/20 07:08:02;;;;;;;3.10;1.30;;;20.40;30.90;;;;;;5011155;28;21036;-63
2021/03/20 07:10:40;;;;;;;4.63;1.40;;;20.40;31.00;;;;;;5010972;28;20412;-63
2021/03/20 07:13:11;;;;;;;2.90;1.33;;;20.30;31.00;;;;;;5012939;28;20499;-62
2021/03/20 07:15:38;;;;;;;2.60;1.30;;;20.30;31.10;;;;;;5012350;28;20389;-62
2021/03/20 07:18:30;;;;;;;4.43;1.58;;;20.40;31.00;;;;;;5012025;28;20886;-62
2021/03/20 07:20:58;;;;;;;6.38;1.60;;;20.40;31.50;;;;;;5011514;28;20495;-62
2021/03/20 07:23:26;;;;;;;3.80;1.38;;;20.40;31.50;;;;;;5011362;28;20393;-62
2021/03/20 07:26:07;;;;;;;2.72;1.30;;;20.40;31.60;;;;;;5010689;28;20409;-62
2021/03/20 07:28:34;;;;;;;4.05;1.30;;;20.40;31.50;;;;;;5010714;28;20401;-62
2021/03/20 07:31:13;;;;;;;4.25;1.40;;;20.30;31.60;;;;;;5012747;28;20400;-60
2021/03/20 07:33:48;;;;;;;3.50;1.30;;;20.30;31.80;;;;;;5034914;28;20973;-60
2021/03/20 07:36:31;;;;;;;5.25;1.35;;;20.30;31.70;;;;;;5016984;28;20403;-62
2021/03/20 07:39:23;;;;;;;2.55;1.52;;;20.40;31.80;;;;;;5011637;28;20412;-62
2021/03/20 07:41:51;;;;;;;4.83;1.37;;;20.40;32.40;;;;;;5012782;28;20435;-62
2021/03/20 07:44:16;;;;;;;4.65;1.60;;;20.50;32.10;;;;;;5012078;28;20892;-62
2021/03/20 07:46:43;;;;;;;2.40;1.33;;;20.60;32.00;;;;;;5011823;28;20439;-63
2021/03/20 07:49:25;;;;;;;5.43;1.50;;;20.60;31.90;;;;;;5011301;28;20396;-62
2021/03/20 07:52:00;;;;;;;3.92;1.58;;;20.60;32.10;;;;;;5010461;28;20404;-62
2021/03/20 07:54:28;;;;;;;4.03;1.40;;;20.60;32.10;;;;;;5027921;28;20395;-62
2021/03/20 07:56:54;;;;;;;3.90;1.60;;;20.60;32.00;;;;;;5011708;28;20483;-62
2021/03/20 07:59:26;;;;;;;5.45;1.95;;;20.60;31.80;;;;;;5018704;28;20752;-62
2021/03/20 08:01:58;;;;;;;5.50;1.52;;;20.70;31.60;;;;;;5031494;28;20391;-61
2021/03/20 08:04:50;;;;;;;4.45;1.73;;;20.70;31.90;;;;;;5031482;28;20388;-61
2021/03/20 08:07:47;;;;;;;4.67;1.77;;;20.70;31.60;;;;;;5031046;28;20990;-62
2021/03/20 08:10:14;;;;;;;2.95;1.52;;;20.70;31.70;;;;;;5031310;28;20407;-63
2021/03/20 08:13:03;;;;;;;3.42;1.40;;;20.70;31.50;;;;;;5029718;28;20434;-62
2021/03/20 08:15:37;;;;;;;2.58;1.55;;;20.70;31.50;;;;;;5029898;28;20834;-61
2021/03/20 08:18:24;;;;;;;2.60;1.57;;;20.70;31.40;;;;;;5029949;28;20944;-62
2021/03/20 08:20:58;;;;;;;3.90;1.50;;;20.70;31.30;;;;;;5020322;28;20428;-62
2021/03/20 08:23:30;;;;;;;4.55;1.45;;;20.70;31.20;;;;;;5026507;28;21053;-62
2021/03/20 08:26:16;;;;;;;3.03;1.35;;;20.80;31.30;;;;;;5021607;28;20379;-63
2021/03/20 08:28:50;;;;;;;2.20;1.40;;;20.80;31.30;;;;;;5018267;28;20447;-63
2021/03/20 08:31:34;;;;;;;3.50;1.45;;;20.80;31.10;;;;;;5021356;28;20410;-63
2021/03/20 08:34:27;;;;;;;3.35;1.40;;;20.80;31.00;;;;;;5013236;28;20401;-63
2021/03/20 08:37:23;;;;;;;2.85;1.20;;;20.70;31.30;;;;;;5026112;28;20411;-63
2021/03/20 08:39:57;;;;;;;8.43;1.27;;;20.80;31.30;;;;;;5014595;28;20436;-63
2021/03/20 08:42:56;;;;;;;3.83;1.40;;;20.80;31.30;;;;;;5026135;28;20400;-63
2021/03/20 08:45:35;;;;;;;2.50;1.50;;;20.80;31.30;;;;;;5034030;28;20398;-63
2021/03/20 08:48:25;;;;;;;2.83;1.20;;;20.90;31.30;;;;;;5034836;28;20875;-62
2021/03/20 08:51:12;;;;;;;3.13;1.37;;;20.90;31.00;;;;;;5021024;28;20397;-62
2021/03/20 08:53:50;;;;;;;3.10;1.50;;;21.00;30.90;;;;;;5026622;28;20408;-61
2021/03/20 08:56:24;;;;;;;3.05;1.27;;;21.00;30.80;;;;;;5014794;28;20396;-63
2021/03/20 08:58:56;;;;;;;2.47;1.30;;;21.00;30.80;;;;;;5013126;28;20423;-61
2021/03/20 09:01:42;;;;;;;2.53;1.40;;;21.10;30.90;;;;;;5022652;28;20742;-62
2021/03/20 09:04:19;;;;;;;5.00;1.40;;;21.20;31.00;;;;;;5024888;28;20401;-62
2021/03/20 09:06:56;;;;;;;1.67;1.20;;;21.20;31.00;;;;;;5025386;28;20461;-62
2021/03/20 09:09:32;;;;;;;1.85;1.35;;;21.10;31.00;;;;;;5022023;28;20808;-63
2021/03/20 09:12:17;;;;;;;1.70;1.10;;;21.10;31.50;;;;;;5021796;28;20470;-62
2021/03/20 09:14:45;;;;;;;2.20;1.10;;;21.10;30.90;;;;;;5022390;28;20927;-63
2021/03/20 09:17:31;;;;;;;1.70;1.30;;;21.10;30.90;;;;;;5020645;28;20475;-62
2021/03/20 09:20:11;;;;;;;1.90;1.30;;;21.10;30.80;;;;;;5024045;28;20907;-62
2021/03/20 09:22:43;;;;;;;2.53;1.30;;;21.10;31.30;;;;;;5023766;28;20379;-62
2021/03/20 09:25:18;;;;;;;2.17;1.20;;;21.20;30.50;;;;;;5022840;28;20384;-62
2021/03/20 09:28:12;;;;;;;2.70;1.30;;;21.20;30.30;;;;;;5019621;28;21113;-63
2021/03/20 09:30:48;;;;;;;2.05;1.20;;;21.20;30.20;;;;;;5023587;28;20399;-63
2021/03/20 09:33:19;;;;;;;1.60;1.20;;;21.20;30.10;;;;;;5023052;28;20997;-64
2021/03/20 09:35:50;;;;;;;1.75;1.20;;;21.20;30.30;;;;;;5024238;28;20392;-63
2021/03/20 09:38:35;;;;;;;1.88;1.20;;;21.30;30.30;;;;;;5022724;28;20950;-63
2021/03/20 09:41:01;;;;;;;1.90;1.30;;;21.40;30.20;;;;;;5023937;28;20413;-63
2021/03/20 09:44:01;;;;;;;1.55;1.02;;;21.50;30.10;;;;;;5022076;28;20645;-62
2021/03/20 09:46:38;;;;;;;1.65;1.10;;;21.60;30.00;;;;;;5020865;28;20401;-62
2021/03/20 09:49:07;;;;;;;1.30;1.00;;;21.70;29.90;;;;;;5021999;28;20487;-63
2021/03/20 09:51:54;;;;;;;1.48;1.00;;;21.80;29.90;;;;;;5021371;28;20401;-63
2021/03/20 09:54:23;;;;;;;1.67;1.20;;;21.90;29.80;;;;;;5023855;28;20387;-63
2021/03/20 09:57:05;;;;;;;1.85;1.05;;;22.00;29.70;;;;;;5021398;28;20395;-63
2021/03/20 09:59:34;;;;;;;1.60;1.10;;;22.10;29.60;;;;;;5023460;28;20420;-62
2021/03/20 10:02:21;;;;;;;1.75;1.20;;;22.10;29.50;;;;;;5020881;28;20451;-62
2021/03/20 10:05:03;;;;;;;1.90;1.17;;;22.20;29.50;;;;;;5020212;28;20396;-63
2021/03/20 10:07:33;;;;;;;4.37;1.30;;;22.10;30.00;;;;;;5021293;28;20758;-63
2021/03/20 10:10:01;;;;;;;4.60;1.20;;;22.10;30.50;;;;;;5020811;28;20432;-64
2021/03/20 10:12:47;;;;;;;2.40;1.10;;;22.10;30.50;;;;;;5021485;28;20399;-63
2021/03/20 10:15:20;;;;;;;3.42;1.13;;;22.10;30.60;;;;;;5011266;28;20387;-64
2021/03/20 10:18:11;;;;;;;3.78;1.20;;;22.10;30.30;;;;;;5020078;28;20405;-64
2021/03/20 10:20:56;;;;;;;5.15;1.38;;;22.20;30.40;;;;;;5022417;28;20421;-63
2021/03/20 10:23:41;;;;;;;6.18;1.52;;;22.30;30.20;;;;;;5019491;28;20471;-63
2021/03/20 10:26:20;;;;;;;5.20;1.60;;;22.40;30.50;;;;;;5022233;28;20484;-63
2021/03/20 10:28:53;;;;;;;3.60;1.23;;;22.50;30.00;;;;;;5032611;28;20470;-63
2021/03/20 10:31:20;;;;;;;4.38;1.52;;;22.60;29.90;;;;;;5031841;28;20490;-63
2021/03/20 10:33:48;;;;;;;3.55;1.23;;;22.70;29.70;;;;;;5031416;28;20398;-62
2021/03/20 10:36:27;;;;;;;5.00;1.20;;;22.70;29.60;;;;;;5032275;28;20400;-63
2021/03/20 10:38:53;;;;;;;3.40;1.05;;;22.80;30.30;;;;;;5032076;28;20406;-62
2021/03/20 10:41:34;;;;;;;3.10;1.17;;;22.90;30.10;;;;;;5030233;28;20411;-63
2021/03/20 10:44:16;;;;;;;3.72;1.20;;;22.90;29.90;;;;;;5032360;28;20387;-62
2021/03/20 10:46:42;;;;;;;5.00;1.30;;;23.00;29.20;;;;;;5029446;28;20399;-62
2021/03/20 10:49:15;;;;;;;5.65;1.27;;;23.00;29.40;;;;;;5017799;28;20455;-61
2021/03/20 10:51:43;;;;;;;5.32;1.45;;;23.10;29.20;;;;;;5025970;28;20483;-62
2021/03/20 10:54:23;;;;;;;3.30;1.23;;;23.10;29.00;;;;;;5019740;28;20405;-62
2021/03/20 10:56:52;;;;;;;7.30;1.23;;;23.10;29.00;;;;;;5020289;28;20401;-63
2021/03/20 10:59:27;;;;;;;3.08;1.33;;;23.10;29.70;;;;;;5020539;28;20777;-64
2021/03/20 11:01:53;;;;;;;5.85;1.15;;;23.00;29.90;;;;;;5010809;28;20404;-62
2021/03/20 11:04:45;;;;;;;4.28;1.10;;;22.90;30.40;;;;;;5022685;28;20907;-62
2021/03/20 11:07:22;;;;;;;6.15;1.30;;;22.80;31.00;;;;;;5026929;28;20789;-64
2021/03/20 11:09:48;;;;;;;5.03;1.30;;;22.80;31.00;;;;;;5012287;28;20396;-62
2021/03/20 11:12:26;;;;;;;4.68;1.30;;;22.80;30.90;;;;;;5011969;28;20377;-62
2021/03/20 11:14:58;;;;;;;6.40;1.30;;;22.80;30.90;;;;;;5013278;28;20407;-63
2021/03/20 11:17:30;;;;;;;5.07;1.30;;;22.80;30.90;;;;;;5011899;28;20932;-61
2021/03/20 11:20:13;;;;;;;7.38;1.20;;;22.80;31.00;;;;;;5010058;28;20942;-62
2021/03/20 11:22:40;;;;;;;5.18;1.30;;;22.80;30.90;;;;;;5011616;28;20389;-62
2021/03/20 11:25:16;;;;;;;6.30;1.67;;;22.80;31.00;;;;;;5011341;28;20392;-61
2021/03/20 11:27:42;;;;;;;5.75;1.10;;;22.70;31.30;;;;;;5011286;28;20465;-61
2021/03/20 11:30:22;;;;;;;5.35;1.20;;;22.70;31.50;;;;;;5011164;28;20396;-62
2021/03/20 11:32:49;;;;;;;6.33;1.40;;;22.70;30.80;;;;;;5011167;28;20468;-62
2021/03/20 11:35:26;;;;;;;6.47;1.30;;;22.60;30.80;;;;;;5010917;28;20454;-63
2021/03/20 11:37:53;;;;;;;7.72;1.42;;;22.60;30.80;;;;;;5010028;28;20393;-62
2021/03/20 11:40:33;;;;;;;9.27;1.40;;;22.60;30.90;;;;;;5011690;28;20675;-62
2021/03/20 11:43:03;;;;;;;9.25;1.40;;;22.60;31.30;;;;;;5010357;28;20403;-63
2021/03/20 11:45:37;;;;;;;6.40;1.10;;;22.60;31.10;;;;;;5009818;28;20992;-63
2021/03/20 11:48:15;;;;;;;6.47;1.30;;;22.60;30.80;;;;;;5010003;28;20869;-61
2021/03/20 11:50:41;;;;;;;8.07;1.38;;;22.60;31.20;;;;;;5024913;28;20772;-63
2021/03/20 11:53:27;;;;;;;10.43;1.63;;;22.50;31.00;;;;;;5031270;28;20388;-62
2021/03/20 11:55:55;;;;;;;10.70;1.60;;;22.50;31.20;;;;;;5026147;28;20402;-62
2021/03/20 11:58:32;;;;;;;11.85;2.03;;;22.50;31.60;;;;;;5030708;28;20391;-63
2021/03/20 12:01:19;;;;;;;12.20;1.77;;;22.50;32.10;;;;;;5046105;28;20432;-62
2021/03/20 12:03:44;;;;;;;11.00;1.98;;;22.60;32.80;;;;;;5028855;28;20406;-62
2021/03/20 12:06:19;;;;;;;14.45;2.00;;;22.60;32.80;;;;;;5024628;28;20399;-62
2021/03/20 12:09:12;;;;;;;13.87;1.90;;;22.60;32.80;;;;;;5026438;28;20399;-62
2021/03/20 12:11:46;;;;;;;12.40;1.83;;;22.70;32.90;;;;;;5018778;28;20404;-63
2021/03/20 12:14:28;;;;;;;7.60;1.70;;;22.70;32.60;;;;;;5014691;28;20453;-61
2021/03/20 12:17:14;;;;;;;8.23;1.60;;;22.70;32.00;;;;;;5013760;28;20419;-62
2021/03/20 12:20:00;;;;;;;9.93;1.80;;;22.70;31.60;;;;;;5018141;28;20415;-62
2021/03/20 12:22:31;;;;;;;10.35;1.58;;;22.70;31.70;;;;;;5034193;28;20391;-62
2021/03/20 12:25:38;;;;;;;8.93;1.42;;;22.70;31.70;;;;;;5034984;28;20371;-63
2021/03/20 12:28:32;;;;;;;7.40;1.65;;;22.70;32.20;;;;;;5027908;28;20386;-62
2021/03/20 12:31:16;;;;;;;7.15;1.25;;;22.80;32.00;;;;;;5032421;28;20453;-63
2021/03/20 12:34:08;;;;;;;5.93;1.20;;;22.80;32.00;;;;;;5026424;28;20418;-62
2021/03/20 12:36:49;;;;;;;5.30;1.27;;;22.80;31.70;;;;;;5020230;28;20404;-63
2021/03/20 12:39:20;;;;;;;3.70;1.20;;;23.10;31.30;;;;;;5031919;28;20426;-61
2021/03/20 12:41:49;;;;;;;3.72;1.10;;;23.30;30.80;;;;;;5014893;28;20887;-63
2021/03/20 12:44:18;;;;;;;5.72;1.60;;;23.40;30.50;;;;;;5012035;28;20393;-63
2021/03/20 12:46:49;;;;;;;4.38;1.20;;;23.40;30.40;;;;;;5013616;28;20389;-63
2021/03/20 12:49:21;;;;;;;2.83;1.10;;;23.50;30.40;;;;;;5028214;28;20394;-63
2021/03/20 12:52:00;;;;;;;10.65;1.50;;;23.40;30.40;;;;;;5015750;28;20416;-63
2021/03/20 12:54:29;;;;;;;4.23;1.20;;;23.30;30.40;;;;;;5017835;28;20411;-63
2021/03/20 12:56:55;;;;;;;4.40;1.33;;;23.30;30.40;;;;;;5034476;28;20406;-63
2021/03/20 12:59:21;;;;;;;3.10;1.20;;;23.30;30.30;;;;;;5032532;28;20402;-63
2021/03/20 13:01:46;;;;;;;2.40;1.20;;;23.30;30.30;;;;;;5034244;28;20482;-63
2021/03/20 13:04:16;;;;;;;3.83;1.30;;;23.20;30.10;;;;;;5034116;28;20867;-63
2021/03/20 13:06:43;;;;;;;3.33;1.40;;;23.30;30.00;;;;;;5034282;28;20466;-64
2021/03/20 13:09:09;;;;;;;3.75;1.45;;;23.30;30.00;;;;;;5034201;28;20410;-64
2021/03/20 13:11:35;;;;;;;3.40;1.40;;;23.40;29.90;;;;;;5031802;28;20427;-63
2021/03/20 13:14:01;;;;;;;3.03;1.40;;;23.40;29.90;;;;;;5023683;28;20407;-64
2021/03/20 13:16:28;;;;;;;2.83;1.42;;;23.40;30.00;;;;;;5013617;28;20464;-64
2021/03/20 13:18:55;;;;;;;2.20;1.37;;;23.40;29.90;;;;;;5014525;28;20908;-63
2021/03/20 13:21:21;;;;;;;3.40;1.35;;;23.30;29.90;;;;;;5031432;28;20494;-63
2021/03/20 13:23:49;;;;;;;2.00;1.20;;;23.30;29.90;;;;;;5034043;28;20471;-63
2021/03/20 13:26:15;;;;;;;2.50;1.40;;;23.20;29.90;;;;;;5034036;28;20441;-64
2021/03/20 13:28:40;;;;;;;2.17;1.27;;;23.20;29.80;;;;;;5033909;28;20779;-64
2021/03/20 13:31:06;;;;;;;2.90;1.30;;;23.20;30.10;;;;;;5033615;28;20397;-63